Impacts METAR Board INFO
IDs:

KORD - Chicago/O'Hare Intl, IL, US

Updated at: 1320 UTC 19 Jan 2018
Potential Impact None Slight Moderate High
Time19/01Z 19/02Z 19/03Z 19/04Z 19/05Z 19/06Z 19/07Z 19/08Z 19/09Z 19/10Z 19/11Z 19/12Z 19/13Z
VIS10 10 10 10 10 10 10 10 10 10 10 10 10
CIG-- -- -- -- -- -- -- -- -- -- -- -- --
CoverFEWFEWFEWSCTSCTFEWFEWFEWFEWFEWSCTSCTSCT
FltCatVFRVFRVFRVFRVFRVFRVFRVFRVFRVFRVFRVFRVFR
WX--------------------------
WDir230220230230210220230230220220220220220
WSpd12 12 9 9 11 8 9 11 11 10 13 14 14
WGst18 -- -- -- -- -- -- -- -- -- -- 22 --
Raw hourly METARs
KORD 190051Z 23012G18KT 10SM FEW250 M01/M07 A3000 RMK AO2 SLP167 T10061067
KORD 190151Z 22012KT 10SM FEW250 M01/M07 A2997 RMK AO2 SLP157 T10061067
KORD 190251Z 23009KT 10SM FEW250 M01/M07 A2997 RMK AO2 SLP157 T10061067 56012
KORD 190351Z 23009KT 10SM SCT250 M01/M07 A2998 RMK AO2 SLP162 T10061067
KORD 190451Z 21011KT 10SM SCT250 M01/M07 A2997 RMK AO2 SLP157 T10111072
KORD 190551Z 22008KT 10SM FEW250 M02/M07 A2995 RMK AO2 SLP150 4/002 T10171072 11006 21017 400001089 58006
KORD 190651Z 23009KT 10SM FEW250 M01/M08 A2993 RMK AO2 SLP144 T10111078
KORD 190751Z 23011KT 10SM FEW250 M01/M08 A2993 RMK AO2 SLP141 T10111078
KORD 190851Z 22011KT 10SM FEW250 M02/M08 A2993 RMK AO2 SLP143 T10171078 55006
KORD 190951Z 22010KT 10SM FEW250 M02/M08 A2992 RMK AO2 SLP138 T10221078
KORD 191051Z 22013KT 10SM SCT250 M02/M07 A2990 RMK AO2 SLP134 T10171072
KORD 191151Z 22014G22KT 10SM SCT250 M02/M07 A2989 RMK AO2 SLP128 4/002 T10171072 11011 21022 58015
KORD 191251Z 22014KT 10SM FEW180 SCT250 M02/M07 A2989 RMK AO2 SLP128 T10171072